Okolona, Kentucky
Current Conditions -  °F | °C
As of 4:56 AM on Tuesday 21 Oct 2014 (Local Time) from KSDF Reporting Station
Few Clouds Few Clouds  
Wind Chill: 53°   Ceiling: Unl
Heat Index: 53°   Visibility: 10mi
Dew Point: 46°   Wind: 10mph
Humidity: 77%   Direction: 240°WSW
Pressure: 29.97"   Gusts: NA
Location:  38.14°N, 85.69°W
Report Text: KSDF 210856Z 24009KT 10SM FEW065 12/08 A2997 RMK AO2 SLP148 T01170078 53007
Loading
Personal Weather Stations






























Interactive Weather Map
Tropical Storm Tracking
New forecast layout! Learn more

10-Day Weather Forecast

Advertisements
Track Severe Weather on mobile